createdAt,value
2022-12-27T16:37:43.008Z,5.78
2022-12-27T16:40:58.901Z,5.28
2022-12-27T16:44:03.408Z,6.25
2022-12-27T16:46:56.773Z,6.00
2022-12-27T16:50:01.007Z,6.88
2022-12-27T16:53:15.871Z,5.65
2022-12-27T16:56:09.625Z,19.17
2022-12-27T16:58:57.477Z,8.73
2022-12-27T17:01:45.677Z,8.32
2022-12-27T17:04:59.269Z,9.23
2022-12-27T17:07:56.301Z,8.10
2022-12-27T17:10:52.558Z,16.85
2022-12-27T17:13:47.627Z,13.13
2022-12-27T17:16:52.202Z,10.48
2022-12-27T17:19:48.078Z,11.63
2022-12-27T17:22:39.783Z,12.38
2022-12-27T17:25:41.434Z,10.97
2022-12-27T17:28:34.399Z,13.98
2022-12-27T17:31:41.079Z,15.60
2022-12-27T17:35:03.938Z,18.63
2022-12-27T17:38:13.729Z,16.50
2022-12-27T17:41:45.881Z,10.95
2022-12-27T17:44:43.723Z,12.38
2022-12-27T17:47:49.093Z,11.00
2022-12-27T17:50:38.140Z,10.65
2022-12-27T17:53:44.109Z,11.80
2022-12-27T17:57:04.903Z,14.85
2022-12-27T17:59:52.841Z,16.88
2022-12-27T18:02:40.941Z,15.68
2022-12-27T18:06:15.123Z,19.55
2022-12-27T18:09:08.086Z,18.00
2022-12-27T18:11:55.590Z,20.58
2022-12-27T18:14:43.835Z,21.25
2022-12-27T18:17:44.394Z,20.00
2022-12-27T18:20:37.729Z,17.30
2022-12-27T18:23:25.661Z,18.13
2022-12-27T18:26:15.490Z,20.73
2022-12-27T18:29:03.469Z,20.55
2022-12-27T18:31:56.003Z,21.90
2022-12-27T18:37:41.480Z,20.63
2022-12-27T18:40:28.800Z,20.33
2022-12-27T18:43:16.027Z,31.50
2022-12-27T18:46:06.732Z,21.00
2022-12-27T18:48:55.410Z,16.25
2022-12-27T18:51:45.646Z,17.60
2022-12-27T18:54:35.777Z,23.23
2022-12-27T18:57:35.592Z,18.67
2022-12-27T19:00:29.090Z,19.92
2022-12-27T19:03:23.128Z,22.85
2022-12-27T19:06:13.677Z,20.95
2022-12-27T19:09:01.151Z,20.05
2022-12-27T19:11:55.924Z,15.55
2022-12-27T19:14:46.789Z,16.40
2022-12-27T19:17:38.765Z,15.73
2022-12-27T19:20:29.754Z,15.13
2022-12-27T19:23:28.350Z,15.13
2022-12-27T19:26:24.503Z,15.02
2022-12-27T19:29:17.296Z,21.23
2022-12-27T19:32:10.513Z,21.58
2022-12-27T19:35:04.502Z,21.75
2022-12-27T19:41:03.953Z,15.27
2022-12-27T19:43:51.789Z,10.70
2022-12-27T19:46:41.721Z,14.95
2022-12-27T19:49:51.680Z,16.45
2022-12-27T19:52:40.077Z,16.83
2022-12-27T19:55:31.245Z,17.10
2022-12-27T19:58:27.452Z,16.85
2022-12-27T20:01:15.340Z,19.75
2022-12-27T20:04:07.908Z,18.17
2022-12-27T20:07:06.666Z,21.15
2022-12-27T20:10:00.196Z,18.55
2022-12-27T20:12:47.963Z,13.45
2022-12-27T20:15:42.131Z,15.18
2022-12-27T20:18:32.272Z,15.48
2022-12-27T20:21:24.593Z,16.02
2022-12-27T20:24:12.970Z,13.00
2022-12-27T20:27:00.247Z,11.68
2022-12-27T20:29:48.578Z,11.18
2022-12-27T20:32:35.811Z,10.07
2022-12-27T20:35:33.484Z,9.25
2022-12-27T20:38:27.203Z,9.73
2022-12-27T20:41:31.437Z,9.48
2022-12-27T20:44:19.412Z,9.38
2022-12-27T20:47:08.041Z,9.65
2022-12-27T20:49:57.934Z,10.40
2022-12-27T20:52:50.978Z,13.63
2022-12-27T20:55:40.488Z,12.05
2022-12-27T20:58:39.198Z,12.32
2022-12-27T21:01:28.595Z,11.90
2022-12-27T21:04:19.358Z,11.35
2022-12-27T21:07:07.585Z,12.13
2022-12-27T21:10:01.674Z,12.63
2022-12-27T21:12:49.128Z,12.90
2022-12-27T21:15:42.274Z,12.75
2022-12-27T21:18:34.093Z,11.40
2022-12-27T21:21:27.640Z,11.38
2022-12-27T21:24:15.911Z,12.30
2022-12-27T21:27:05.721Z,13.95
2022-12-27T21:29:56.036Z,13.70
2022-12-27T21:32:43.124Z,13.25
2022-12-27T21:35:30.613Z,13.68
2022-12-27T21:38:17.744Z,12.50
2022-12-27T21:41:11.679Z,13.43
2022-12-27T21:43:59.575Z,13.98
2022-12-27T21:46:50.228Z,13.35
2022-12-27T21:49:41.591Z,14.27
2022-12-27T21:52:29.129Z,14.77
2022-12-27T21:55:19.824Z,14.88
2022-12-27T21:58:07.718Z,13.95
2022-12-27T22:01:02.508Z,12.88
2022-12-27T22:03:59.342Z,12.60
2022-12-27T22:06:47.473Z,13.75
2022-12-27T22:09:34.950Z,13.48
2022-12-27T22:12:24.334Z,13.65
2022-12-27T22:15:11.955Z,14.23
2022-12-27T22:17:59.121Z,16.08
2022-12-27T22:20:47.146Z,17.85
2022-12-27T22:23:37.190Z,15.70
2022-12-27T22:26:29.884Z,15.65
2022-12-27T22:32:05.847Z,12.32
2022-12-27T22:34:54.283Z,12.23
2022-12-27T22:37:41.562Z,12.45
2022-12-27T22:40:36.256Z,12.45
2022-12-27T22:43:36.235Z,11.70
2022-12-27T22:46:24.244Z,12.27
2022-12-27T22:49:11.624Z,11.75
2022-12-27T22:51:58.955Z,11.65
2022-12-27T22:55:04.064Z,11.43
2022-12-27T22:57:55.349Z,11.50
2022-12-27T23:00:45.386Z,10.18
2022-12-27T23:03:34.780Z,11.40
2022-12-27T23:06:22.895Z,11.48
2022-12-27T23:09:10.199Z,11.18
2022-12-27T23:11:57.484Z,11.07
2022-12-27T23:14:44.629Z,10.90
2022-12-27T23:17:53.163Z,10.13
2022-12-27T23:21:21.837Z,10.05
2022-12-27T23:23:53.451Z,9.93
2022-12-27T23:26:41.594Z,10.23
2022-12-27T23:29:29.325Z,10.45
2022-12-27T23:32:17.862Z,10.07
2022-12-27T23:35:08.205Z,11.25
2022-12-27T23:38:02.726Z,10.90
2022-12-27T23:40:59.653Z,9.43
2022-12-27T23:43:52.771Z,9.57
2022-12-27T23:46:43.762Z,9.00
2022-12-27T23:49:31.267Z,8.77
2022-12-27T23:52:25.405Z,8.48
2022-12-27T23:55:13.001Z,7.40
2022-12-27T23:58:00.177Z,8.20
